createdAt,value
2023-02-14T05:00:27.576Z,16.10
2023-02-14T05:11:32.303Z,13.80
2023-02-14T05:22:32.208Z,14.20
2023-02-14T05:33:32.069Z,13.90
2023-02-14T05:44:32.021Z,13.90
2023-02-14T05:55:31.823Z,10.30
2023-02-14T06:06:31.704Z,14.70
2023-02-14T06:17:31.580Z,10.50
2023-02-14T06:28:31.490Z,12.30
2023-02-14T06:39:31.353Z,10.40
2023-02-14T06:50:31.224Z,12.70
2023-02-14T07:01:31.147Z,12.00
2023-02-14T07:12:30.970Z,10.30
2023-02-14T07:23:30.862Z,10.00
2023-02-14T07:34:30.736Z,10.70
2023-02-14T07:45:30.616Z,12.70
2023-02-14T07:56:30.488Z,12.00
2023-02-14T08:07:30.358Z,14.50
2023-02-14T08:18:30.228Z,13.20
2023-02-14T08:29:30.124Z,14.10
2023-02-14T08:40:29.963Z,14.40
2023-02-14T08:51:29.869Z,14.60
2023-02-14T09:02:29.818Z,14.90
2023-02-14T09:13:29.590Z,15.30
2023-02-14T09:24:29.468Z,14.10
2023-02-14T09:35:29.352Z,14.80
2023-02-14T09:46:29.240Z,9.70
2023-02-14T09:57:29.139Z,12.30
2023-02-14T10:08:28.987Z,13.50
2023-02-14T10:19:28.848Z,11.80
2023-02-14T10:30:28.858Z,14.00
2023-02-14T10:41:28.595Z,13.50
2023-02-14T10:52:28.484Z,14.70
2023-02-14T11:03:28.423Z,14.80
2023-02-14T11:14:28.288Z,14.00
2023-02-14T11:25:28.119Z,15.40
2023-02-14T11:36:28.015Z,18.10
2023-02-14T11:47:27.887Z,15.80
2023-02-14T11:58:27.833Z,18.40
2023-02-14T12:09:27.676Z,14.80
2023-02-14T12:20:27.499Z,14.30
2023-02-14T12:31:27.505Z,16.10
2023-02-14T12:42:27.241Z,17.30
2023-02-14T12:53:27.110Z,19.60
2023-02-14T13:04:26.993Z,18.50
2023-02-14T13:15:27.309Z,18.30
2023-02-14T13:26:27.153Z,19.90
2023-02-14T13:37:27.251Z,20.20
2023-02-14T13:48:26.500Z,17.80
2023-02-14T13:59:26.902Z,20.30
2023-02-14T14:10:26.267Z,17.90
2023-02-14T14:21:26.114Z,19.40
2023-02-14T14:32:25.990Z,19.00
2023-02-14T14:43:25.865Z,19.00
2023-02-14T14:54:25.755Z,18.70
2023-02-14T15:05:25.632Z,17.80
2023-02-14T15:16:25.508Z,20.60
2023-02-14T15:27:25.403Z,20.50
2023-02-14T15:38:25.252Z,17.90
2023-02-14T15:49:25.132Z,20.10
2023-02-14T16:00:25.051Z,20.30
2023-02-14T16:11:24.883Z,16.80
2023-02-14T16:22:24.795Z,21.00
2023-02-14T16:33:24.659Z,19.00
2023-02-14T16:44:24.500Z,18.80
2023-02-14T16:55:24.375Z,18.60
2023-02-14T17:06:24.256Z,18.30
2023-02-14T17:17:24.211Z,17.50
2023-02-14T17:28:23.996Z,18.50
2023-02-14T17:39:23.888Z,18.90
2023-02-14T17:50:23.760Z,21.30
2023-02-14T18:01:23.723Z,16.60
2023-02-14T18:12:23.507Z,21.30
2023-02-14T18:23:23.427Z,22.20
2023-02-14T18:34:23.258Z,22.30
2023-02-14T18:45:23.186Z,20.90
2023-02-14T18:56:23.005Z,20.20
2023-02-14T19:07:22.898Z,17.10
2023-02-14T19:18:24.796Z,19.30
2023-02-14T19:29:22.675Z,22.00
2023-02-14T19:40:22.519Z,22.20
2023-02-14T19:51:22.390Z,21.70
2023-02-14T20:02:22.419Z,23.00
2023-02-14T20:13:22.137Z,26.00
2023-02-14T20:24:22.026Z,22.60
2023-02-14T20:35:21.905Z,19.00
2023-02-14T20:46:21.876Z,17.20
2023-02-14T20:57:21.676Z,19.70
2023-02-14T21:08:21.530Z,17.40
2023-02-14T21:19:21.403Z,17.40
2023-02-14T21:30:21.353Z,16.60
2023-02-14T21:41:21.171Z,14.90
2023-02-14T21:52:21.058Z,16.00
